Time;durP1;ratioP1;P1;durP2;ratioP2;P2;SDS_P1;SDS_P2;PMS_P1;PMS_P2;Temp;Humidity;BMP_temperature;BMP_pressure;BME280_temperature;BME280_humidity;BME280_pressure;Samples;Min_cycle;Max_cycle;Signal;HPM_P1;HPM_P2
2021/03/17 03:47:38;;;;;;;9.60;7.75;;;3.30;99.90;;;;;;5036637;23;20534;-87
2021/03/17 03:50:06;;;;;;;10.80;7.50;;;3.30;99.90;;;;;;5031595;28;20041;-87
2021/03/17 03:52:55;;;;;;;11.60;8.40;;;3.30;99.90;;;;;;5046549;28;20072;-88
2021/03/17 03:55:33;;;;;;;9.50;7.53;;;3.20;99.90;;;;;;5030642;28;20085;-88
2021/03/17 03:58:02;;;;;;;10.80;7.28;;;3.20;99.90;;;;;;5030951;28;20038;-87
2021/03/17 04:00:32;;;;;;;9.68;7.10;;;3.30;99.90;;;;;;5017207;28;20057;-86
2021/03/17 04:02:59;;;;;;;9.93;7.95;;;3.30;99.90;;;;;;5030866;28;20077;-88
2021/03/17 04:05:33;;;;;;;10.77;7.50;;;3.40;99.90;;;;;;5038012;28;20049;-86
2021/03/17 04:08:05;;;;;;;11.75;8.07;;;3.40;99.90;;;;;;5049453;28;20046;-87
2021/03/17 04:10:32;;;;;;;11.70;8.02;;;3.50;99.90;;;;;;5029895;28;20089;-89
2021/03/17 04:13:01;;;;;;;11.52;7.72;;;3.50;99.90;;;;;;5028943;28;20045;-87
2021/03/17 04:15:27;;;;;;;11.77;8.00;;;;;;;;;;5046694;28;20038;-87
2021/03/17 04:17:53;;;;;;;9.68;6.90;;;;;;;;;;5039625;28;20041;-86
2021/03/17 04:20:23;;;;;;;8.98;7.25;;;3.60;99.90;;;;;;5038628;28;20050;-89
2021/03/17 04:22:51;;;;;;;9.52;6.93;;;3.60;99.90;;;;;;5042809;28;20090;-89
2021/03/17 04:25:20;;;;;;;12.00;7.55;;;3.60;99.90;;;;;;5030606;28;20042;-88
2021/03/17 04:27:49;;;;;;;10.25;7.45;;;3.70;99.90;;;;;;5044395;28;20041;-87
2021/03/17 04:30:17;;;;;;;15.30;8.07;;;3.70;99.90;;;;;;5047561;28;20045;-89
2021/03/17 04:32:46;;;;;;;12.02;6.72;;;3.80;99.90;;;;;;5043064;28;20096;-88
2021/03/17 04:35:14;;;;;;;8.60;6.45;;;3.80;99.90;;;;;;5030782;28;20038;-89
2021/03/17 04:37:43;;;;;;;10.57;7.50;;;3.80;99.90;;;;;;5034782;28;20490;-87
2021/03/17 04:40:10;;;;;;;12.18;7.20;;;3.90;99.90;;;;;;5031530;28;20068;-87
2021/03/17 04:42:36;;;;;;;9.73;7.18;;;;;;;;;;5030794;28;20824;-88
2021/03/17 04:45:03;;;;;;;13.15;8.13;;;4.10;99.90;;;;;;5030578;28;20042;-88
2021/03/17 04:47:30;;;;;;;10.50;7.28;;;4.10;99.90;;;;;;5047660;28;20054;-88
2021/03/17 04:49:57;;;;;;;10.27;7.35;;;4.10;99.90;;;;;;5050055;28;20901;-88
2021/03/17 04:52:24;;;;;;;10.45;7.53;;;4.20;99.90;;;;;;5051385;28;20065;-88
2021/03/17 04:54:50;;;;;;;10.15;7.18;;;;;;;;;;5051341;28;20050;-88
2021/03/17 04:57:25;;;;;;;10.20;6.85;;;4.30;99.90;;;;;;5051539;28;20037;-87
2021/03/17 04:59:52;;;;;;;9.43;6.72;;;4.20;99.90;;;;;;5053908;28;20038;-88
2021/03/17 05:02:29;;;;;;;10.68;7.65;;;4.30;99.90;;;;;;5046416;28;20046;-90
2021/03/17 05:04:55;;;;;;;8.93;6.30;;;;;;;;;;5053279;28;20037;-88
2021/03/17 05:07:23;;;;;;;10.10;6.75;;;4.20;99.90;;;;;;5050232;28;20474;-88
2021/03/17 05:09:51;;;;;;;8.13;6.93;;;4.30;99.90;;;;;;5040764;28;20121;-87
2021/03/17 05:12:17;;;;;;;8.93;7.28;;;;;;;;;;5057107;28;20069;-87
2021/03/17 05:14:45;;;;;;;9.35;6.95;;;4.30;99.90;;;;;;5045476;28;20052;-88
2021/03/17 05:17:11;;;;;;;8.80;6.38;;;4.30;99.90;;;;;;5048922;28;20026;-87
2021/03/17 05:19:40;;;;;;;6.95;6.25;;;4.30;99.90;;;;;;5052951;28;20041;-89
2021/03/17 05:22:08;;;;;;;8.40;6.88;;;4.30;99.90;;;;;;5035798;28;20481;-90
2021/03/17 05:24:34;;;;;;;9.95;6.55;;;;;;;;;;5050084;28;20065;-88
2021/03/17 05:27:05;;;;;;;8.60;6.93;;;4.30;99.90;;;;;;5055286;28;20066;-89
2021/03/17 05:29:31;;;;;;;10.80;6.82;;;4.30;99.90;;;;;;5038627;28;20066;-88
2021/03/17 05:31:57;;;;;;;9.20;6.85;;;4.30;99.90;;;;;;5025284;28;20042;-89
2021/03/17 05:34:24;;;;;;;9.68;7.03;;;;;;;;;;5032951;28;20112;-89
2021/03/17 05:36:50;;;;;;;11.32;7.97;;;;;;;;;;5044067;28;20117;-89
2021/03/17 05:39:16;;;;;;;9.80;8.20;;;;;;;;;;5034008;28;20508;-89
2021/03/17 05:41:42;;;;;;;9.32;7.53;;;4.30;99.90;;;;;;5052433;28;20038;-88
2021/03/17 05:44:09;;;;;;;13.65;7.80;;;4.20;99.90;;;;;;5047790;28;20880;-88
2021/03/17 05:46:35;;;;;;;11.15;7.85;;;;;;;;;;5034901;28;20046;-89
2021/03/17 05:49:02;;;;;;;10.38;8.10;;;4.20;99.90;;;;;;5050533;28;20046;-88
2021/03/17 05:51:28;;;;;;;11.82;8.05;;;;;;;;;;5042514;28;20046;-88
2021/03/17 05:53:54;;;;;;;11.15;8.75;;;;;;;;;;5052191;28;20461;-88
2021/03/17 05:56:20;;;;;;;9.32;7.72;;;;;;;;;;5043636;28;20046;-86
2021/03/17 05:58:46;;;;;;;11.57;7.95;;;;;;;;;;5043399;28;20195;-88
2021/03/17 06:01:14;;;;;;;10.18;7.90;;;4.10;99.90;;;;;;5039769;28;21024;-90
2021/03/17 06:03:47;;;;;;;11.38;8.27;;;4.00;99.90;;;;;;5029647;28;20145;-90
2021/03/17 06:06:15;;;;;;;12.13;8.20;;;4.00;99.90;;;;;;5028152;28;20046;-87
2021/03/17 06:08:46;;;;;;;12.05;8.07;;;3.90;99.90;;;;;;5045959;28;20733;-88
2021/03/17 06:11:16;;;;;;;10.63;8.43;;;3.90;99.90;;;;;;5040647;28;20046;-88
2021/03/17 06:13:50;;;;;;;10.57;8.35;;;3.90;99.90;;;;;;5030264;28;20333;-87
2021/03/17 06:16:19;;;;;;;11.18;8.63;;;3.90;99.90;;;;;;5039104;28;21048;-86
2021/03/17 06:18:55;;;;;;;9.55;7.40;;;3.90;99.90;;;;;;5046224;28;20744;-86
2021/03/17 06:21:21;;;;;;;10.88;7.90;;;;;;;;;;5043885;28;20041;-88
2021/03/17 06:23:56;;;;;;;11.65;7.97;;;3.90;99.90;;;;;;5040877;28;20042;-88
2021/03/17 06:26:22;;;;;;;10.70;8.35;;;3.90;99.90;;;;;;5038902;28;20061;-88
2021/03/17 06:28:48;;;;;;;10.70;8.48;;;;;;;;;;5046063;28;20060;-89
2021/03/17 06:31:16;;;;;;;10.20;7.95;;;3.90;99.90;;;;;;5033393;28;20124;-89
2021/03/17 06:33:43;;;;;;;12.35;8.43;;;3.90;99.90;;;;;;5030680;28;20060;-89
2021/03/17 06:36:28;;;;;;;9.32;7.57;;;3.90;99.90;;;;;;5046471;28;20034;-89
2021/03/17 06:39:05;;;;;;;11.68;8.05;;;3.90;99.90;;;;;;5029527;28;20054;-89
2021/03/17 06:41:42;;;;;;;10.73;8.00;;;3.90;99.90;;;;;;5037338;28;20053;-88
2021/03/17 06:44:09;;;;;;;12.00;8.20;;;;;;;;;;5039697;28;20776;-90
2021/03/17 06:46:35;;;;;;;10.23;8.27;;;;;;;;;;5002694;28;20522;-88
2021/03/17 06:49:03;;;;;;;11.52;8.23;;;3.90;99.90;;;;;;5027180;28;20695;-88
2021/03/17 06:51:31;;;;;;;10.07;7.93;;;3.90;99.90;;;;;;5008540;28;20042;-87
2021/03/17 06:54:00;;;;;;;11.77;8.52;;;4.00;99.90;;;;;;5015893;28;20716;-88
2021/03/17 06:56:27;;;;;;;10.18;8.30;;;3.90;99.90;;;;;;5007944;28;20573;-89
2021/03/17 06:59:04;;;;;;;10.43;8.15;;;3.90;99.90;;;;;;5015254;28;20073;-89
2021/03/17 07:01:42;;;;;;;9.63;7.60;;;3.90;99.90;;;;;;5006594;28;20053;-88
2021/03/17 07:04:20;;;;;;;16.13;9.32;;;4.00;99.90;;;;;;5024105;28;20042;-88
2021/03/17 07:07:00;;;;;;;14.60;9.88;;;4.10;99.90;;;;;;5016597;28;20804;-87
2021/03/17 07:09:30;;;;;;;10.10;7.50;;;4.10;99.90;;;;;;5022737;28;20047;-87
2021/03/17 07:12:08;;;;;;;11.07;8.80;;;4.20;99.90;;;;;;4991779;28;20525;-87
2021/03/17 07:14:37;;;;;;;11.27;8.48;;;4.30;99.90;;;;;;5025900;28;20125;-87
2021/03/17 07:17:27;;;;;;;11.18;7.85;;;4.40;99.90;;;;;;5013874;28;20043;-87
2021/03/17 07:19:53;;;;;;;13.57;9.15;;;;;;;;;;5036167;28;20023;-88
2021/03/17 07:26:01;;;;;;;10.10;6.32;;;4.70;99.90;;;;;;5007452;28;20073;-88
2021/03/17 07:28:26;;;;;;;9.75;6.05;;;4.80;99.90;;;;;;5039603;28;20030;-88
2021/03/17 07:30:52;;;;;;;8.32;6.22;;;4.90;99.90;;;;;;5031220;28;20030;-91
2021/03/17 07:33:24;;;;;;;5.97;5.25;;;4.90;99.90;;;;;;5047480;28;20042;-88
2021/03/17 07:35:49;;;;;;;5.95;5.22;;;4.90;99.90;;;;;;5027821;28;20034;-87
2021/03/17 07:38:15;;;;;;;6.85;5.35;;;4.90;99.90;;;;;;5001627;28;20407;-86
2021/03/17 07:40:44;;;;;;;4.90;4.50;;;4.90;99.90;;;;;;4995365;28;20051;-90
2021/03/17 07:43:11;;;;;;;5.07;4.57;;;4.90;99.90;;;;;;4998637;28;20098;-89
2021/03/17 07:45:37;;;;;;;5.82;4.95;;;5.00;99.90;;;;;;5009214;28;20069;-88
2021/03/17 07:48:06;;;;;;;6.00;5.13;;;5.00;99.90;;;;;;5036974;28;20053;-87
2021/03/17 07:50:32;;;;;;;5.93;5.32;;;5.10;99.90;;;;;;5045472;28;20050;-88
2021/03/17 07:53:01;;;;;;;6.88;6.05;;;5.10;99.90;;;;;;5027788;28;20041;-88
2021/03/17 07:55:29;;;;;;;9.98;7.47;;;5.10;99.90;;;;;;5015580;28;20042;-88
2021/03/17 07:57:56;;;;;;;6.72;5.75;;;5.20;99.90;;;;;;5032770;28;20078;-89
2021/03/17 08:00:24;;;;;;;7.28;5.88;;;5.40;99.90;;;;;;5018907;28;20097;-88
2021/03/17 08:02:52;;;;;;;7.82;6.13;;;5.60;99.90;;;;;;5022267;28;20038;-88
2021/03/17 08:05:19;;;;;;;7.03;6.30;;;5.60;99.90;;;;;;5025785;28;20034;-88
2021/03/17 08:07:47;;;;;;;7.35;5.82;;;5.70;99.90;;;;;;5041029;28;20046;-87
2021/03/17 08:10:13;;;;;;;7.82;7.00;;;5.70;99.90;;;;;;5018068;28;20054;-87
2021/03/17 08:12:43;;;;;;;6.32;5.55;;;5.90;99.90;;;;;;5008447;28;20066;-88
2021/03/17 08:15:12;;;;;;;6.40;5.50;;;6.10;99.90;;;;;;5013306;28;20042;-88
2021/03/17 08:17:38;;;;;;;7.40;6.07;;;6.20;99.90;;;;;;5020538;28;20092;-88
2021/03/17 08:20:19;;;;;;;6.32;5.72;;;6.30;99.90;;;;;;5015844;28;20512;-88
2021/03/17 08:22:46;;;;;;;5.80;5.18;;;6.30;99.90;;;;;;5020413;28;20049;-88
2021/03/17 08:25:32;;;;;;;7.10;6.10;;;6.20;99.90;;;;;;5037916;28;20034;-89
2021/03/17 08:28:16;;;;;;;6.53;5.93;;;6.30;99.90;;;;;;5034917;28;21012;-87
2021/03/17 08:30:42;;;;;;;7.60;6.70;;;6.40;99.90;;;;;;5027054;28;20498;-87
2021/03/17 08:33:08;;;;;;;6.53;5.90;;;6.60;99.90;;;;;;5046299;28;20046;-88
2021/03/17 08:36:03;;;;;;;7.05;6.35;;;6.70;99.90;;;;;;5024835;28;20058;-88
2021/03/17 08:38:53;;;;;;;7.50;6.82;;;6.80;99.90;;;;;;5032996;28;20037;-89
2021/03/17 08:41:41;;;;;;;6.28;5.68;;;6.90;99.90;;;;;;5031625;28;20042;-88
2021/03/17 08:44:23;;;;;;;9.00;5.90;;;7.00;99.90;;;;;;5029673;28;20091;-89
2021/03/17 08:46:51;;;;;;;6.65;6.05;;;7.10;99.90;;;;;;5029366;28;20510;-87
2021/03/17 08:49:37;;;;;;;7.90;6.55;;;7.40;99.90;;;;;;5036975;28;20072;-88
2021/03/17 08:52:09;;;;;;;6.47;5.88;;;7.80;99.90;;;;;;5013384;28;20047;-88
2021/03/17 08:54:34;;;;;;;6.20;5.60;;;8.60;99.90;;;;;;5033109;28;20429;-88
2021/03/17 08:57:08;;;;;;;6.43;5.78;;;8.80;99.90;;;;;;5029445;28;20132;-89
2021/03/17 08:59:47;;;;;;;6.00;5.50;;;9.30;99.90;;;;;;5032182;28;20034;-87
2021/03/17 09:02:24;;;;;;;5.85;5.35;;;9.80;99.90;;;;;;5028312;28;20050;-88
2021/03/17 09:04:55;;;;;;;7.22;6.50;;;9.90;99.90;;;;;;5042432;28;20132;-88
2021/03/17 09:07:27;;;;;;;8.93;8.02;;;9.90;99.90;;;;;;5046732;28;20487;-91
2021/03/17 09:09:58;;;;;;;7.03;6.15;;;9.80;99.90;;;;;;5034961;28;20052;-88
2021/03/17 09:12:27;;;;;;;6.00;5.50;;;9.50;99.90;;;;;;5044065;28;20142;-88
2021/03/17 09:15:14;;;;;;;7.28;6.60;;;9.20;99.90;;;;;;5030921;28;20070;-88
2021/03/17 09:18:07;;;;;;;7.75;6.45;;;8.90;99.90;;;;;;5046312;28;20049;-87
2021/03/17 09:20:47;;;;;;;6.40;5.75;;;8.80;99.90;;;;;;5045699;28;20037;-88
2021/03/17 09:23:15;;;;;;;6.60;6.00;;;8.60;99.90;;;;;;5046256;28;20825;-87
2021/03/17 09:25:55;;;;;;;7.45;6.72;;;8.30;99.90;;;;;;5034833;28;20073;-89
2021/03/17 09:28:37;;;;;;;7.05;6.35;;;8.10;99.90;;;;;;5028380;28;20044;-88
2021/03/17 09:31:04;;;;;;;;;;;8.10;99.90;;;;;;5029186;28;20105;-89
2021/03/17 09:33:35;;;;;;;6.43;5.82;;;8.50;99.90;;;;;;5028687;28;19968;-87
2021/03/17 09:36:10;;;;;;;6.97;6.28;;;8.60;99.90;;;;;;5009944;28;20046;-87
2021/03/17 09:38:42;;;;;;;6.55;5.95;;;10.10;99.90;;;;;;5032684;28;20069;-87
2021/03/17 09:41:13;;;;;;;5.88;5.32;;;11.30;99.90;;;;;;5042846;28;20558;-89
2021/03/17 09:43:41;;;;;;;6.32;5.93;;;12.60;98.40;;;;;;5046061;28;20500;-87
2021/03/17 09:46:31;;;;;;;6.85;6.22;;;14.00;95.00;;;;;;5044883;28;20128;-87
2021/03/17 09:49:17;;;;;;;5.93;5.32;;;16.90;82.20;;;;;;5035428;28;20052;-88
2021/03/17 09:51:51;;;;;;;5.53;5.13;;;19.00;55.30;;;;;;5041523;28;20506;-89
2021/03/17 09:54:24;;;;;;;6.25;5.75;;;19.30;57.00;;;;;;5027414;28;20563;-88
2021/03/17 09:56:57;;;;;;;5.50;5.00;;;19.50;54.50;;;;;;5030069;28;20034;-88
2021/03/17 09:59:40;;;;;;;6.75;6.25;;;19.00;54.20;;;;;;5028068;28;20196;-88
2021/03/17 10:02:10;;;;;;;6.00;5.50;;;18.40;53.90;;;;;;5036913;28;20042;-89
2021/03/17 10:04:44;;;;;;;6.38;5.90;;;17.50;55.80;;;;;;5033092;28;20044;-87
2021/03/17 10:07:24;;;;;;;5.97;5.47;;;17.10;56.10;;;;;;5045771;28;20050;-88
2021/03/17 10:09:51;;;;;;;6.53;5.93;;;16.40;58.20;;;;;;5015644;28;20053;-86
2021/03/17 10:12:25;;;;;;;6.10;5.60;;;15.60;58.10;;;;;;5038767;28;20053;-89
2021/03/17 10:15:07;;;;;;;6.43;5.93;;;14.90;59.60;;;;;;5038924;28;20687;-88
2021/03/17 10:17:34;;;;;;;6.32;5.82;;;14.40;59.40;;;;;;5044320;28;20038;-87
2021/03/17 10:20:21;;;;;;;6.47;5.88;;;13.30;63.00;;;;;;5046145;28;20129;-88
2021/03/17 10:22:49;;;;;;;7.07;6.47;;;13.10;65.10;;;;;;5044921;28;20501;-87
2021/03/17 10:25:20;;;;;;;6.63;6.03;;;13.10;65.20;;;;;;5021937;28;20054;-88
2021/03/17 10:27:51;;;;;;;6.75;6.18;;;13.30;64.30;;;;;;5032975;28;20037;-89
2021/03/17 10:30:34;;;;;;;8.20;7.10;;;13.60;65.30;;;;;;5026898;28;20037;-90
2021/03/17 10:33:01;;;;;;;6.72;6.15;;;13.60;65.20;;;;;;5034887;28;20164;-90
2021/03/17 10:35:32;;;;;;;6.85;6.22;;;13.40;65.60;;;;;;5036764;28;20102;-89
2021/03/17 10:38:00;;;;;;;6.80;6.20;;;13.20;65.30;;;;;;5026267;28;20038;-89
2021/03/17 10:40:27;;;;;;;6.80;6.20;;;13.10;66.30;;;;;;5004617;28;20142;-89
2021/03/17 10:42:58;;;;;;;6.85;6.25;;;12.60;67.60;;;;;;5039582;28;20060;-89
2021/03/17 10:45:48;;;;;;;7.22;6.53;;;12.20;68.30;;;;;;5044240;28;20046;-89
2021/03/17 10:48:17;;;;;;;7.05;6.18;;;12.10;67.90;;;;;;5032195;28;20100;-89
2021/03/17 10:50:44;;;;;;;6.70;6.10;;;11.70;71.00;;;;;;5026031;28;20046;-88
2021/03/17 10:53:19;;;;;;;6.43;5.82;;;11.50;72.60;;;;;;5042911;28;20038;-89
2021/03/17 10:55:45;;;;;;;6.95;6.18;;;11.20;73.60;;;;;;5025762;28;20073;-89
2021/03/17 10:58:14;;;;;;;6.50;5.90;;;10.90;74.90;;;;;;5028522;28;20113;-89
2021/03/17 11:00:41;;;;;;;7.07;6.43;;;10.50;74.20;;;;;;5039006;28;20038;-89
2021/03/17 11:03:28;;;;;;;7.97;6.82;;;9.90;77.50;;;;;;5040590;28;20421;-89
2021/03/17 11:06:17;;;;;;;6.25;5.18;;;9.40;79.60;;;;;;5040925;28;20137;-89
2021/03/17 11:08:44;;;;;;;7.25;6.20;;;9.10;79.80;;;;;;5033344;28;20043;-89
2021/03/17 11:11:11;;;;;;;6.05;5.47;;;8.90;81.00;;;;;;5042837;28;20030;-89
2021/03/17 11:13:45;;;;;;;6.72;5.78;;;8.80;82.60;;;;;;5033526;28;20054;-89
2021/03/17 11:16:36;;;;;;;6.68;5.97;;;8.70;84.60;;;;;;5040945;28;20084;-89
2021/03/17 11:19:08;;;;;;;;;;;8.70;88.10;;;;;;5036572;28;20038;-89
2021/03/17 11:21:35;;;;;;;5.85;5.35;;;8.90;90.50;;;;;;5028099;28;19967;-88
2021/03/17 11:24:04;;;;;;;4.53;4.07;;;9.10;89.50;;;;;;5031603;28;20053;-88
2021/03/17 11:26:39;;;;;;;4.95;4.55;;;9.50;89.60;;;;;;5024059;28;20521;-89
2021/03/17 11:29:29;;;;;;;7.50;5.88;;;9.60;90.10;;;;;;5031445;28;20050;-89
2021/03/17 11:32:10;;;;;;;5.65;5.15;;;9.60;89.80;;;;;;5045265;28;20054;-88
2021/03/17 11:34:35;;;;;;;5.05;4.32;;;8.80;91.00;;;;;;5030655;28;20046;-88
2021/03/17 11:37:01;;;;;;;5.60;5.05;;;8.00;92.60;;;;;;5043611;28;20056;-88
2021/03/17 11:39:27;;;;;;;3.72;3.42;;;7.40;94.00;;;;;;5020716;28;20037;-90
2021/03/17 11:41:52;;;;;;;3.58;3.20;;;6.80;94.40;;;;;;5027028;28;20049;-90
2021/03/17 11:44:21;;;;;;;3.10;2.90;;;6.10;96.40;;;;;;5049900;28;20052;-90
2021/03/17 11:46:47;;;;;;;3.33;3.10;;;6.00;97.30;;;;;;5050314;28;20033;-92
2021/03/17 11:49:14;;;;;;;3.67;3.38;;;5.90;97.40;;;;;;5055679;28;20054;-89
2021/03/17 11:51:40;;;;;;;3.97;3.65;;;5.70;98.30;;;;;;5028993;28;20042;-89
2021/03/17 11:54:06;;;;;;;4.45;3.70;;;5.60;99.50;;;;;;5037017;28;20053;-89
2021/03/17 11:56:32;;;;;;;4.43;4.07;;;5.40;99.80;;;;;;5022564;28;20409;-89
2021/03/17 11:58:59;;;;;;;3.38;3.05;;;5.30;99.90;;;;;;5043495;28;20472;-89
2021/03/17 12:01:25;;;;;;;4.28;3.88;;;;;;;;;;5017395;28;20772;-89
2021/03/17 12:03:51;;;;;;;4.22;3.83;;;;;;;;;;5046683;28;20524;-88
2021/03/17 12:06:17;;;;;;;3.47;2.97;;;;;;;;;;5037725;28;20056;-87
2021/03/17 12:08:44;;;;;;;4.82;4.03;;;4.70;99.90;;;;;;5041106;28;20045;-89
2021/03/17 12:11:10;;;;;;;4.65;2.97;;;;;;;;;;5037139;28;20069;-89
2021/03/17 12:13:36;;;;;;;3.55;3.25;;;4.50;99.90;;;;;;5046266;28;20052;-89
2021/03/17 12:16:02;;;;;;;3.65;3.05;;;;;;;;;;5027518;28;20045;-89
2021/03/17 12:18:43;;;;;;;6.70;3.30;;;4.60;99.90;;;;;;5025575;28;20782;-89
2021/03/17 12:21:08;;;;;;;5.72;3.17;;;4.60;99.90;;;;;;5045553;28;20046;-88
2021/03/17 12:23:35;;;;;;;3.90;3.60;;;;;;;;;;5042953;28;20386;-90
2021/03/17 12:26:02;;;;;;;5.10;4.03;;;;;;;;;;5027893;28;20101;-90
2021/03/17 12:28:28;;;;;;;6.45;3.97;;;;;;;;;;5038755;28;20127;-89
2021/03/17 12:30:54;;;;;;;3.75;3.45;;;5.80;99.90;;;;;;5017027;28;20045;-88
2021/03/17 12:40:10;;;;;;;4.07;3.75;;;6.70;99.90;;;;;;5047548;28;20046;-87
2021/03/17 12:42:39;;;;;;;3.92;3.35;;;7.10;99.90;;;;;;5030063;28;20034;-87
2021/03/17 12:54:20;;;;;;;3.70;3.40;;;7.70;99.30;;;;;;5046682;28;20909;-88
2021/03/17 12:56:51;;;;;;;4.43;3.92;;;7.50;99.50;;;;;;5053943;28;20042;-89
2021/03/17 12:59:47;;;;;;;;;;;7.50;99.50;;;;;;5054770;28;20041;-89
2021/03/17 13:02:12;;;;;;;6.15;3.63;;;7.60;99.60;;;;;;5034070;28;20008;-87
2021/03/17 13:04:38;;;;;;;4.40;4.00;;;7.70;99.50;;;;;;5052174;28;20135;-89
2021/03/17 13:07:04;;;;;;;3.78;3.47;;;7.80;99.90;;;;;;5050676;28;20042;-88
2021/03/17 13:09:30;;;;;;;3.60;3.30;;;7.70;99.80;;;;;;5051648;28;20042;-88
2021/03/17 13:11:56;;;;;;;3.25;3.00;;;;;;;;;;5043340;28;20041;-88
2021/03/17 13:14:25;;;;;;;3.63;2.80;;;7.80;97.50;;;;;;5055895;28;20034;-90
2021/03/17 13:16:54;;;;;;;3.83;3.38;;;7.90;97.20;;;;;;5049426;28;20797;-89
2021/03/17 13:19:20;;;;;;;3.30;3.10;;;8.00;97.30;;;;;;5018104;28;20047;-89
2021/03/17 13:27:10;;;;;;;4.47;4.15;;;7.90;95.90;;;;;;5054992;23;20061;-89
2021/03/17 13:29:35;;;;;;;3.63;3.33;;;7.70;95.50;;;;;;5046167;28;20053;-89
2021/03/17 13:32:01;;;;;;;4.32;3.92;;;7.50;95.20;;;;;;5035739;28;20042;-88
2021/03/17 13:34:27;;;;;;;3.75;3.40;;;7.30;95.20;;;;;;5042425;28;20064;-88
2021/03/17 13:36:52;;;;;;;4.22;3.75;;;7.20;95.90;;;;;;5038621;28;20038;-88
2021/03/17 13:39:19;;;;;;;3.92;3.58;;;7.10;96.50;;;;;;5029050;28;20046;-88
2021/03/17 13:41:45;;;;;;;5.05;4.00;;;7.10;97.40;;;;;;5042442;28;20044;-87
2021/03/17 13:44:11;;;;;;;4.65;4.25;;;7.20;98.50;;;;;;5066396;28;20026;-88
2021/03/17 13:46:36;;;;;;;4.32;3.92;;;7.20;96.60;;;;;;5069247;28;20038;-88
2021/03/17 13:49:02;;;;;;;4.80;4.28;;;7.10;96.00;;;;;;5051452;28;20053;-88
2021/03/17 13:51:28;;;;;;;4.55;3.65;;;7.30;97.10;;;;;;5045684;28;20030;-89
2021/03/17 13:53:54;;;;;;;4.78;4.32;;;7.60;97.00;;;;;;5054678;28;20049;-88
2021/03/17 13:56:20;;;;;;;5.32;4.35;;;7.70;95.90;;;;;;5049019;28;20054;-88
2021/03/17 13:58:46;;;;;;;8.32;6.97;;;7.70;95.60;;;;;;5047413;28;20450;-90
2021/03/17 14:01:12;;;;;;;4.90;4.50;;;7.80;95.40;;;;;;5029746;28;20797;-88
2021/03/17 14:03:37;;;;;;;4.40;4.00;;;8.00;95.20;;;;;;5030386;28;20073;-88
2021/03/17 14:06:04;;;;;;;4.47;4.07;;;8.30;95.20;;;;;;5036532;28;20097;-88
2021/03/17 14:08:32;;;;;;;4.40;4.00;;;8.50;94.00;;;;;;5008225;28;20502;-88
2021/03/17 14:10:57;;;;;;;4.78;4.35;;;8.60;93.30;;;;;;5035054;28;20065;-88
2021/03/17 14:13:24;;;;;;;5.80;5.00;;;8.50;92.60;;;;;;5046106;28;20041;-88
2021/03/17 14:15:50;;;;;;;4.63;4.18;;;9.10;93.00;;;;;;5019882;28;20093;-87
2021/03/17 14:18:17;;;;;;;4.60;4.20;;;8.80;92.70;;;;;;5039422;28;20477;-87
2021/03/17 14:20:43;;;;;;;4.30;3.90;;;9.00;92.00;;;;;;5032287;28;20046;-88
2021/03/17 14:23:09;;;;;;;4.80;4.30;;;9.00;91.90;;;;;;5041038;28;20076;-88
2021/03/17 14:25:36;;;;;;;4.68;4.22;;;9.30;91.30;;;;;;5011504;28;20061;-89
2021/03/17 14:28:03;;;;;;;5.78;5.18;;;9.70;91.10;;;;;;5014400;28;20046;-88
2021/03/17 14:30:29;;;;;;;5.50;5.00;;;10.00;89.70;;;;;;5039750;28;20042;-89
2021/03/17 14:32:57;;;;;;;4.82;4.40;;;10.30;90.70;;;;;;5038719;28;20046;-90
2021/03/17 14:35:23;;;;;;;4.57;4.15;;;10.80;86.30;;;;;;5011827;28;20129;-90
2021/03/17 14:37:49;;;;;;;5.57;4.93;;;11.30;84.10;;;;;;5032005;28;20553;-90
2021/03/17 14:40:15;;;;;;;4.97;4.47;;;;;;;;;;5027677;28;20038;-90
2021/03/17 14:42:41;;;;;;;5.07;4.55;;;;;;;;;;5046713;28;20390;-90
2021/03/17 14:45:10;;;;;;;4.70;4.30;;;11.10;77.80;;;;;;5045451;28;20033;-89
2021/03/17 14:47:36;;;;;;;4.85;4.45;;;11.00;78.10;;;;;;5025255;28;20053;-89
2021/03/17 14:50:04;;;;;;;4.95;4.45;;;10.90;77.30;;;;;;5036820;28;20041;-90
2021/03/17 14:52:29;;;;;;;6.65;5.10;;;10.80;79.00;;;;;;5017947;28;20042;-88
2021/03/17 14:54:56;;;;;;;5.82;4.82;;;10.60;78.90;;;;;;5013974;28;20112;-88
2021/03/17 14:57:22;;;;;;;5.47;4.97;;;10.50;79.30;;;;;;5039044;28;20049;-88
2021/03/17 14:59:48;;;;;;;5.07;4.53;;;10.50;81.70;;;;;;5026583;28;20121;-88
2021/03/17 15:02:14;;;;;;;8.73;6.10;;;;;;;;;;5026224;28;20497;-88
2021/03/17 15:04:40;;;;;;;7.30;6.47;;;10.10;82.70;;;;;;5025839;28;20031;-88
2021/03/17 15:07:06;;;;;;;5.43;4.68;;;10.00;80.60;;;;;;5047579;28;20498;-88
2021/03/17 15:09:32;;;;;;;5.28;4.88;;;;;;;;;;5041523;28;20038;-88
2021/03/17 15:11:58;;;;;;;4.72;4.32;;;9.30;80.60;;;;;;5039777;28;20145;-89
2021/03/17 15:14:24;;;;;;;4.93;4.47;;;9.20;82.40;;;;;;5026490;28;20097;-88
2021/03/17 15:16:50;;;;;;;5.22;4.82;;;9.20;83.80;;;;;;5031121;28;20121;-88
2021/03/17 15:19:16;;;;;;;4.95;4.55;;;;;;;;;;5045665;28;20045;-89
2021/03/17 15:21:42;;;;;;;5.93;5.32;;;;;;;;;;5031945;28;20115;-89
2021/03/17 15:24:08;;;;;;;5.15;4.65;;;9.50;88.80;;;;;;5033006;28;20831;-90
2021/03/17 15:26:35;;;;;;;6.20;5.60;;;9.90;85.70;;;;;;5007039;28;20166;-89
2021/03/17 15:29:01;;;;;;;5.43;4.85;;;10.30;84.70;;;;;;5029508;28;20555;-89
2021/03/17 15:31:27;;;;;;;5.40;4.53;;;10.50;82.20;;;;;;5025534;28;20521;-89
2021/03/17 15:33:53;;;;;;;4.80;4.40;;;;;;;;;;5021931;28;20068;-90
2021/03/17 15:36:39;;;;;;;6.32;4.75;;;10.40;81.10;;;;;;5044188;28;20046;-89
2021/03/17 15:39:06;;;;;;;4.65;4.35;;;10.60;78.70;;;;;;5044118;28;20045;-91
2021/03/17 15:41:32;;;;;;;4.95;4.55;;;10.50;79.10;;;;;;5028436;28;20042;-90
2021/03/17 15:43:58;;;;;;;4.97;4.07;;;;;;;;;;5017288;28;20049;-89
2021/03/17 15:47:15;;;;;;;4.70;4.30;;;10.40;81.00;;;;;;5017453;28;20126;-89
2021/03/17 15:49:41;;;;;;;5.32;3.63;;;10.50;76.40;;;;;;5026371;28;20042;-90
2021/03/17 15:52:07;;;;;;;4.60;4.22;;;10.20;80.00;;;;;;5037019;28;20050;-88
2021/03/17 15:58:24;;;;;;;6.25;4.78;;;10.10;79.50;;;;;;5040033;28;20049;-88
2021/03/17 16:00:54;;;;;;;5.57;4.53;;;10.00;78.20;;;;;;5045738;28;20045;-88
2021/03/17 16:03:20;;;;;;;5.30;4.80;;;10.10;78.60;;;;;;5045581;28;20050;-88
2021/03/17 16:06:27;;;;;;;4.78;4.38;;;10.10;79.10;;;;;;5045714;28;20049;-88
2021/03/17 16:08:53;;;;;;;5.72;4.95;;;10.00;79.40;;;;;;5045566;28;20089;-88
2021/03/17 16:11:18;;;;;;;5.00;4.60;;;9.70;79.10;;;;;;5031038;28;20038;-88
2021/03/17 16:13:50;;;;;;;5.70;4.35;;;9.40;79.10;;;;;;5007718;28;20046;-88
2021/03/17 16:16:18;;;;;;;4.95;4.25;;;9.20;77.50;;;;;;5008310;28;20070;-87
2021/03/17 16:18:45;;;;;;;8.23;5.47;;;8.80;77.10;;;;;;5009130;28;20055;-88
2021/03/17 16:22:11;;;;;;;5.38;4.47;;;8.40;79.00;;;;;;5026052;28;20117;-88
2021/03/17 16:30:12;;;;;;;5.43;4.13;;;8.00;83.70;;;;;;6157929;23;20018;-88
2021/03/17 16:32:43;;;;;;;4.97;3.97;;;8.00;84.40;;;;;;5044501;28;20049;-89
2021/03/17 16:35:10;;;;;;;5.50;5.00;;;8.00;84.60;;;;;;5040821;28;20093;-88
2021/03/17 16:37:36;;;;;;;9.20;6.28;;;8.00;85.80;;;;;;5028412;28;20046;-90
2021/03/17 16:40:03;;;;;;;5.45;4.40;;;7.90;86.50;;;;;;5044645;28;20022;-89
2021/03/17 16:42:36;;;;;;;5.68;3.72;;;7.90;88.50;;;;;;5038512;28;20506;-89
2021/03/17 16:45:03;;;;;;;4.68;4.22;;;7.80;87.80;;;;;;5026006;28;20121;-89
2021/03/17 16:47:29;;;;;;;4.75;4.30;;;7.80;89.40;;;;;;5043063;28;20072;-87
2021/03/17 16:49:54;;;;;;;5.10;4.60;;;7.90;90.20;;;;;;5041350;28;20497;-86
2021/03/17 16:52:20;;;;;;;5.88;4.55;;;7.90;89.50;;;;;;5034981;28;20399;-88
2021/03/17 16:54:46;;;;;;;6.75;5.00;;;7.90;90.70;;;;;;5048415;28;20172;-90
2021/03/17 16:57:12;;;;;;;5.88;4.53;;;7.80;91.30;;;;;;5032863;28;20046;-87
2021/03/17 16:59:37;;;;;;;6.07;4.78;;;7.60;91.60;;;;;;5028949;28;20418;-89
2021/03/17 17:02:18;;;;;;;6.10;4.90;;;7.50;92.20;;;;;;5044151;28;20038;-87
2021/03/17 17:04:45;;;;;;;5.45;4.30;;;7.30;93.10;;;;;;5044061;28;20044;-87
2021/03/17 17:07:17;;;;;;;5.45;4.68;;;7.20;93.00;;;;;;5051311;28;20042;-90
2021/03/17 17:09:43;;;;;;;4.60;4.20;;;7.00;94.70;;;;;;5034683;28;20056;-91
2021/03/17 17:12:09;;;;;;;5.47;4.43;;;;;;;;;;5032062;28;20041;-91
2021/03/17 17:24:52;;;;;;;4.60;4.20;;;6.40;96.90;;;;;;5043410;28;20052;-92
2021/03/17 17:27:18;;;;;;;4.55;3.70;;;6.40;96.50;;;;;;5013045;28;20046;-92
2021/03/17 17:29:44;;;;;;;4.25;3.88;;;6.20;96.20;;;;;;5014088;28;20155;-90
2021/03/17 17:32:10;;;;;;;5.38;4.40;;;;;;;;;;5040028;28;20047;-92
2021/03/17 17:35:07;;;;;;;5.22;4.07;;;6.20;95.00;;;;;;5046647;28;20046;-93
2021/03/17 17:37:37;;;;;;;4.43;4.03;;;6.20;95.40;;;;;;4969774;28;20067;-92
2021/03/17 17:40:06;;;;;;;5.50;4.72;;;6.30;96.10;;;;;;5031844;28;20051;-90
2021/03/17 17:42:32;;;;;;;6.75;5.00;;;;;;;;;;5030164;28;20025;-90
2021/03/17 17:45:00;;;;;;;5.88;5.13;;;;;;;;;;5028306;28;20042;-90
2021/03/17 17:50:49;;;;;;;5.70;4.50;;;6.30;97.50;;;;;;5045905;28;20061;-90
2021/03/17 17:53:20;;;;;;;5.15;4.50;;;6.20;97.80;;;;;;5048256;28;20034;-89
2021/03/17 17:55:49;;;;;;;6.57;5.25;;;6.10;99.90;;;;;;5042730;28;20046;-90